createdAt,value
2022-07-29T00:01:03.024Z,98.70
2022-07-29T00:02:35.932Z,98.60
2022-07-29T00:04:08.803Z,98.50
2022-07-29T00:05:43.054Z,99.10
2022-07-29T00:07:15.881Z,99.40
2022-07-29T00:08:48.888Z,99.10
2022-07-29T00:10:22.064Z,98.90
2022-07-29T00:11:58.623Z,99.20
2022-07-29T00:13:32.295Z,99.30
2022-07-29T00:15:06.783Z,98.70
2022-07-29T00:16:39.619Z,98.70
2022-07-29T00:18:12.368Z,98.50
2022-07-29T00:19:45.727Z,98.40
2022-07-29T00:21:18.592Z,98.50
2022-07-29T00:22:51.306Z,98.40
2022-07-29T00:24:24.071Z,98.30
2022-07-29T00:25:56.780Z,98.20
2022-07-29T00:27:30.932Z,98.30
2022-07-29T00:30:57.807Z,98.30
2022-07-29T00:32:30.664Z,98.20
2022-07-29T00:34:03.435Z,99.60
2022-07-29T00:35:44.761Z,98.60
2022-07-29T00:37:16.763Z,99.30
2022-07-29T00:38:49.809Z,99.10
2022-07-29T00:40:23.597Z,98.90
2022-07-29T00:41:56.511Z,98.80
2022-07-29T00:43:30.633Z,99.60
2022-07-29T00:45:02.418Z,99.90
2022-07-29T00:46:36.318Z,99.90
2022-07-29T00:48:09.739Z,99.90
2022-07-29T00:49:42.793Z,99.90
2022-07-29T00:51:16.161Z,99.90
2022-07-29T00:52:49.500Z,99.50
2022-07-29T00:54:22.323Z,99.90
2022-07-29T00:55:55.917Z,99.90
2022-07-29T00:57:27.720Z,99.90
2022-07-29T00:59:02.199Z,99.90
2022-07-29T01:00:34.942Z,99.90
2022-07-29T01:02:06.954Z,99.90
2022-07-29T01:03:39.848Z,99.90
2022-07-29T01:05:13.467Z,99.90
2022-07-29T01:06:46.293Z,99.90
2022-07-29T01:08:20.205Z,99.90
2022-07-29T01:09:54.417Z,99.90
2022-07-29T01:11:27.687Z,99.90
2022-07-29T01:13:02.916Z,99.90
2022-07-29T01:14:43.623Z,99.90
2022-07-29T01:16:22.252Z,99.90
2022-07-29T01:18:03.584Z,99.90
2022-07-29T01:19:49.828Z,99.90
2022-07-29T01:21:52.056Z,99.90
2022-07-29T01:23:44.110Z,99.90
2022-07-29T01:25:34.425Z,99.90
2022-07-29T01:27:23.243Z,99.90
2022-07-29T01:29:05.320Z,99.90
2022-07-29T01:30:43.869Z,99.90
2022-07-29T01:32:27.790Z,99.90
2022-07-29T01:34:04.915Z,99.90
2022-07-29T01:35:41.288Z,99.90
2022-07-29T01:37:21.744Z,99.90
2022-07-29T01:39:01.228Z,99.90
2022-07-29T01:40:38.787Z,99.90
2022-07-29T01:42:17.241Z,99.90
2022-07-29T01:43:54.547Z,99.90
2022-07-29T01:45:35.547Z,99.90
2022-07-29T01:47:14.391Z,99.90
2022-07-29T01:48:49.908Z,99.90
2022-07-29T01:50:30.598Z,99.90
2022-07-29T01:52:07.794Z,99.90
2022-07-29T01:53:47.096Z,99.90
2022-07-29T01:55:22.247Z,99.90
2022-07-29T01:56:58.523Z,99.90
2022-07-29T01:58:33.283Z,99.90
2022-07-29T02:00:06.497Z,99.90
2022-07-29T02:01:42.504Z,99.90
2022-07-29T02:03:17.601Z,99.90
2022-07-29T02:04:52.462Z,99.90
2022-07-29T02:06:25.921Z,99.90
2022-07-29T02:08:01.136Z,99.90
2022-07-29T02:09:37.007Z,99.90
2022-07-29T02:11:10.828Z,99.90
2022-07-29T02:12:45.511Z,99.90
2022-07-29T02:14:25.010Z,99.90
2022-07-29T02:15:59.197Z,99.90
2022-07-29T02:17:38.826Z,99.90
2022-07-29T02:19:15.927Z,99.90
2022-07-29T02:20:52.303Z,99.90
2022-07-29T02:22:26.636Z,99.90
2022-07-29T02:24:02.800Z,99.90
2022-07-29T02:25:37.422Z,99.90
2022-07-29T02:27:12.736Z,99.90
2022-07-29T02:28:46.980Z,99.90
2022-07-29T02:30:20.980Z,99.90
2022-07-29T02:31:55.367Z,99.90
2022-07-29T02:33:32.431Z,99.90
2022-07-29T02:35:06.432Z,99.90
2022-07-29T02:36:41.359Z,99.90
2022-07-29T02:38:47.335Z,99.90
2022-07-29T02:40:20.216Z,99.90
2022-07-29T02:41:57.552Z,99.90
2022-07-29T02:43:32.483Z,99.90
2022-07-29T02:45:06.294Z,99.90
2022-07-29T02:46:42.680Z,99.90
2022-07-29T02:48:17.980Z,99.90
2022-07-29T02:49:57.006Z,99.90
2022-07-29T02:51:43.390Z,99.90
2022-07-29T02:53:20.541Z,99.90
2022-07-29T02:54:57.882Z,99.90
2022-07-29T02:56:35.782Z,99.90
2022-07-29T02:58:16.339Z,99.90
2022-07-29T02:59:51.824Z,99.90
2022-07-29T03:01:29.101Z,99.90
2022-07-29T03:03:05.554Z,99.90
2022-07-29T03:04:41.875Z,99.90
2022-07-29T03:06:30.974Z,99.90
2022-07-29T03:08:12.889Z,99.90
2022-07-29T03:09:46.208Z,99.90
2022-07-29T03:11:19.664Z,99.90
2022-07-29T03:13:13.315Z,99.90
2022-07-29T03:14:47.069Z,99.90
2022-07-29T03:16:21.256Z,99.90
2022-07-29T03:17:54.860Z,99.90
2022-07-29T03:19:28.975Z,99.90
2022-07-29T03:21:02.103Z,99.90
2022-07-29T03:22:44.268Z,99.90
2022-07-29T03:24:31.174Z,99.90
2022-07-29T03:26:04.134Z,99.90
2022-07-29T03:27:36.915Z,99.90
2022-07-29T03:29:09.666Z,99.90
2022-07-29T03:30:46.405Z,99.90
2022-07-29T03:32:24.078Z,99.90
2022-07-29T03:33:58.373Z,99.90
2022-07-29T03:35:32.436Z,99.90
2022-07-29T03:37:06.679Z,99.90
2022-07-29T03:38:44.351Z,99.90
2022-07-29T03:40:22.755Z,99.90
2022-07-29T03:42:01.698Z,99.90
2022-07-29T03:43:38.553Z,99.90
2022-07-29T03:45:23.950Z,99.90
2022-07-29T03:46:59.456Z,99.90
2022-07-29T03:48:34.883Z,99.90
2022-07-29T03:50:10.852Z,99.90
2022-07-29T03:51:43.908Z,99.90
2022-07-29T03:53:17.403Z,99.90
2022-07-29T03:54:51.571Z,99.90
2022-07-29T03:56:25.188Z,99.90
2022-07-29T03:57:59.557Z,99.90
2022-07-29T03:59:34.753Z,99.90
2022-07-29T04:01:06.859Z,99.90
2022-07-29T04:02:40.840Z,99.90
2022-07-29T04:04:14.518Z,99.90
2022-07-29T04:05:59.092Z,99.90
2022-07-29T04:07:31.844Z,99.90
2022-07-29T04:09:04.767Z,99.90
2022-07-29T04:10:40.095Z,99.90
2022-07-29T04:12:12.937Z,99.90
2022-07-29T04:13:45.669Z,99.90
2022-07-29T04:15:18.399Z,99.90
2022-07-29T04:16:51.164Z,99.90
2022-07-29T04:18:24.099Z,99.90
2022-07-29T04:19:56.901Z,99.90
2022-07-29T04:21:29.769Z,99.90
2022-07-29T04:23:02.499Z,99.90
2022-07-29T04:24:36.388Z,99.90
2022-07-29T04:26:10.520Z,99.90
2022-07-29T04:27:57.622Z,99.90
2022-07-29T04:29:30.349Z,99.90
2022-07-29T04:31:03.170Z,99.90
2022-07-29T04:32:35.964Z,99.90
2022-07-29T04:34:09.910Z,99.90
2022-07-29T04:35:49.878Z,99.90
2022-07-29T04:37:23.380Z,99.90
2022-07-29T04:38:56.150Z,99.90
2022-07-29T04:40:28.868Z,99.90
2022-07-29T04:42:02.982Z,99.90
2022-07-29T04:43:36.921Z,99.90
2022-07-29T04:45:10.424Z,99.90
2022-07-29T04:46:43.494Z,99.90
2022-07-29T04:48:16.264Z,99.90
2022-07-29T04:49:49.059Z,99.90
2022-07-29T04:51:21.819Z,99.90
2022-07-29T04:52:54.570Z,99.90
2022-07-29T04:54:27.342Z,99.90
2022-07-29T04:56:00.107Z,99.90
2022-07-29T04:57:33.372Z,99.90
2022-07-29T04:59:06.388Z,99.90
2022-07-29T05:00:39.514Z,99.90
2022-07-29T05:02:11.475Z,99.90
2022-07-29T05:03:44.870Z,99.90
2022-07-29T05:05:17.644Z,99.90
2022-07-29T05:06:49.473Z,99.90
2022-07-29T05:08:22.368Z,99.90
2022-07-29T05:09:54.462Z,99.90
2022-07-29T05:11:30.055Z,99.90
2022-07-29T05:13:04.670Z,99.90
2022-07-29T05:14:37.508Z,99.90
2022-07-29T05:16:10.427Z,99.90
2022-07-29T05:17:43.187Z,99.90
2022-07-29T05:19:15.625Z,99.90
2022-07-29T05:20:48.512Z,99.90
2022-07-29T05:22:22.834Z,99.90
2022-07-29T05:23:55.564Z,99.90
2022-07-29T05:25:40.850Z,99.90
2022-07-29T05:27:17.262Z,99.90
2022-07-29T05:28:51.520Z,99.90
2022-07-29T05:30:24.607Z,99.90
2022-07-29T05:31:56.477Z,99.90
2022-07-29T05:33:34.737Z,99.90
2022-07-29T05:35:09.820Z,99.90
2022-07-29T05:36:42.626Z,99.90
2022-07-29T05:38:15.374Z,99.90
2022-07-29T05:39:50.536Z,99.90
2022-07-29T05:41:30.156Z,99.90
2022-07-29T05:43:02.887Z,99.90
2022-07-29T05:44:39.741Z,99.90
2022-07-29T05:46:12.580Z,99.90
2022-07-29T05:47:45.345Z,99.90
2022-07-29T05:49:27.305Z,99.90
2022-07-29T05:51:00.447Z,99.90
2022-07-29T05:52:33.223Z,99.90
2022-07-29T05:54:06.018Z,99.90
2022-07-29T05:55:38.859Z,99.90
2022-07-29T05:57:17.747Z,99.90
2022-07-29T05:58:50.524Z,99.90
2022-07-29T06:00:24.681Z,99.90
2022-07-29T06:01:57.918Z,99.90
2022-07-29T06:03:31.168Z,99.90
2022-07-29T06:05:04.222Z,99.90
2022-07-29T06:06:37.122Z,99.90
2022-07-29T06:08:09.872Z,99.90
2022-07-29T06:09:42.611Z,99.90
2022-07-29T06:11:15.396Z,99.90
2022-07-29T06:12:48.151Z,99.90
2022-07-29T06:14:21.040Z,99.90
2022-07-29T06:15:55.220Z,99.90
2022-07-29T06:17:28.102Z,99.90
2022-07-29T06:19:00.836Z,99.90
2022-07-29T06:20:33.906Z,99.90
2022-07-29T06:22:07.093Z,99.90
2022-07-29T06:23:40.320Z,99.90
2022-07-29T06:25:13.101Z,99.90
2022-07-29T06:26:45.912Z,99.90
2022-07-29T06:28:18.707Z,99.90
2022-07-29T06:29:51.451Z,99.90
2022-07-29T06:31:25.633Z,99.90
2022-07-29T06:32:58.576Z,99.90
2022-07-29T06:34:31.349Z,99.90
2022-07-29T06:36:05.337Z,99.90
2022-07-29T06:37:38.398Z,99.90
2022-07-29T06:39:11.636Z,99.90
2022-07-29T06:41:03.569Z,99.90
2022-07-29T06:42:36.402Z,99.90
2022-07-29T06:44:09.238Z,99.90
2022-07-29T06:45:43.724Z,99.90
2022-07-29T06:47:18.111Z,99.90
2022-07-29T06:48:51.446Z,99.90
2022-07-29T06:50:23.369Z,99.90
2022-07-29T06:51:57.538Z,99.90
2022-07-29T06:53:30.653Z,99.90
2022-07-29T06:55:03.436Z,99.90
2022-07-29T06:56:40.385Z,99.90
2022-07-29T06:58:12.784Z,99.90
2022-07-29T06:59:45.524Z,99.90
2022-07-29T07:01:19.390Z,99.90
2022-07-29T07:02:53.612Z,99.90
2022-07-29T07:04:26.397Z,99.90
2022-07-29T07:05:59.837Z,99.90
2022-07-29T07:07:33.575Z,99.90
2022-07-29T07:09:06.562Z,99.90
2022-07-29T07:10:39.397Z,99.90
2022-07-29T07:12:12.189Z,99.30
2022-07-29T07:13:46.238Z,99.40
2022-07-29T07:15:22.595Z,99.90
2022-07-29T07:17:11.271Z,99.70
2022-07-29T07:18:46.081Z,99.50
2022-07-29T07:20:19.431Z,99.10
2022-07-29T07:21:52.176Z,98.80
2022-07-29T07:23:25.579Z,97.80
2022-07-29T07:24:58.442Z,97.90
2022-07-29T07:26:31.323Z,96.60
2022-07-29T07:28:05.070Z,96.70
2022-07-29T07:29:37.901Z,96.40
2022-07-29T07:31:10.935Z,95.50
2022-07-29T07:32:44.112Z,95.30
2022-07-29T07:34:18.770Z,95.80
2022-07-29T07:36:02.227Z,94.90
2022-07-29T07:37:35.544Z,95.30
2022-07-29T07:39:08.360Z,96.20
2022-07-29T07:40:41.289Z,96.30
2022-07-29T07:42:14.461Z,96.10
2022-07-29T07:43:47.315Z,95.10
2022-07-29T07:45:20.137Z,95.90
2022-07-29T07:46:53.168Z,95.70
2022-07-29T07:48:27.619Z,95.40
2022-07-29T07:50:02.104Z,94.90
2022-07-29T07:51:34.863Z,95.40
2022-07-29T07:53:07.657Z,95.60
2022-07-29T07:54:40.692Z,95.60
2022-07-29T07:56:13.446Z,96.40
2022-07-29T07:57:47.091Z,95.20
2022-07-29T07:59:19.860Z,94.50
2022-07-29T08:00:52.862Z,94.50
2022-07-29T08:02:25.721Z,93.80
2022-07-29T08:03:58.506Z,95.20
2022-07-29T08:05:33.232Z,94.80
2022-07-29T08:07:07.090Z,95.60
2022-07-29T08:08:39.955Z,93.10
2022-07-29T08:10:12.699Z,93.80
2022-07-29T08:11:48.255Z,94.80
2022-07-29T08:13:29.001Z,92.60
2022-07-29T08:15:01.834Z,92.80
2022-07-29T08:16:34.683Z,93.50
2022-07-29T08:18:08.904Z,93.10
2022-07-29T08:19:41.926Z,92.10
2022-07-29T08:21:16.940Z,93.40
2022-07-29T08:22:49.706Z,92.90
2022-07-29T08:24:40.635Z,93.20
2022-07-29T08:26:14.612Z,93.80
2022-07-29T08:27:47.431Z,93.70
2022-07-29T08:29:20.309Z,92.60
2022-07-29T08:30:53.033Z,93.00
2022-07-29T08:32:50.848Z,93.00
2022-07-29T08:34:18.656Z,93.50
2022-07-29T08:35:57.243Z,94.00
2022-07-29T08:37:31.370Z,92.80
2022-07-29T08:39:05.745Z,93.10
2022-07-29T08:40:38.555Z,93.20
2022-07-29T08:42:12.581Z,92.00
2022-07-29T08:43:45.572Z,92.50
2022-07-29T08:45:18.492Z,92.00
2022-07-29T08:46:51.840Z,92.50
2022-07-29T08:48:26.080Z,92.90
2022-07-29T08:49:58.849Z,92.40
2022-07-29T08:51:36.211Z,92.30
2022-07-29T08:53:27.223Z,91.90
2022-07-29T08:55:00.823Z,89.80
2022-07-29T08:56:34.947Z,90.40
2022-07-29T08:58:08.017Z,91.80
2022-07-29T08:59:42.035Z,92.50
2022-07-29T09:01:18.478Z,92.10
2022-07-29T09:02:59.623Z,91.80
2022-07-29T09:04:37.702Z,91.40
2022-07-29T09:06:10.647Z,91.60
2022-07-29T09:07:44.703Z,91.40
2022-07-29T09:09:19.154Z,91.80
2022-07-29T09:10:52.594Z,92.30
2022-07-29T09:12:28.744Z,90.50
2022-07-29T09:14:02.468Z,90.50
2022-07-29T09:15:35.227Z,90.50
2022-07-29T09:17:09.176Z,91.40
2022-07-29T09:18:43.743Z,90.70
2022-07-29T09:20:18.310Z,90.40
2022-07-29T09:21:59.508Z,91.50
2022-07-29T09:23:32.323Z,92.00
2022-07-29T09:25:07.526Z,91.90
2022-07-29T09:26:42.578Z,90.80
2022-07-29T09:28:17.315Z,90.80
2022-07-29T09:29:58.422Z,90.50
2022-07-29T09:31:36.306Z,91.30
2022-07-29T09:33:09.291Z,90.70
2022-07-29T09:34:42.038Z,89.20
2022-07-29T09:36:14.837Z,90.20
2022-07-29T09:37:48.555Z,90.10
2022-07-29T09:39:30.863Z,90.40
2022-07-29T09:41:08.864Z,90.10
2022-07-29T09:42:41.643Z,89.50
2022-07-29T09:44:15.602Z,89.70
2022-07-29T09:45:49.573Z,90.00
2022-07-29T09:47:22.631Z,90.50
2022-07-29T09:49:09.109Z,90.20
2022-07-29T09:50:44.646Z,90.20
2022-07-29T09:52:17.655Z,89.60
2022-07-29T09:53:51.269Z,89.40
2022-07-29T09:55:26.145Z,90.20
2022-07-29T09:57:00.218Z,90.30
2022-07-29T09:58:34.496Z,90.50
2022-07-29T10:00:11.040Z,90.80
2022-07-29T10:01:46.123Z,91.00
2022-07-29T10:03:19.745Z,90.90
2022-07-29T10:04:52.799Z,90.60
2022-07-29T10:06:25.611Z,90.60
2022-07-29T10:07:59.373Z,90.50
2022-07-29T10:09:32.465Z,90.60
2022-07-29T10:11:12.706Z,90.90
2022-07-29T10:12:55.378Z,88.70
2022-07-29T10:14:28.240Z,90.00
2022-07-29T10:16:01.003Z,90.20
2022-07-29T10:17:33.911Z,89.90
2022-07-29T10:19:07.755Z,90.50
2022-07-29T10:20:41.429Z,90.70
2022-07-29T10:22:15.022Z,90.40
2022-07-29T10:23:48.067Z,90.70
2022-07-29T10:25:22.554Z,90.20
2022-07-29T10:26:56.891Z,90.00
2022-07-29T10:28:32.418Z,90.60
2022-07-29T10:30:06.403Z,90.60
2022-07-29T10:31:50.570Z,91.00
2022-07-29T10:33:43.450Z,90.70
2022-07-29T10:35:33.115Z,90.60
2022-07-29T10:37:15.223Z,90.40
2022-07-29T10:38:57.663Z,89.50
2022-07-29T10:40:58.375Z,90.40
2022-07-29T10:42:34.559Z,90.60
2022-07-29T10:44:17.444Z,90.70
2022-07-29T10:45:58.369Z,91.00
2022-07-29T10:47:32.273Z,90.50
2022-07-29T10:49:15.556Z,90.20
2022-07-29T10:50:56.351Z,90.90
2022-07-29T10:53:05.003Z,91.10
2022-07-29T10:54:47.224Z,91.00
2022-07-29T10:56:27.832Z,91.30
2022-07-29T10:58:17.803Z,91.30
2022-07-29T11:00:14.016Z,91.10
2022-07-29T11:01:53.544Z,91.50
2022-07-29T11:03:49.369Z,90.80
2022-07-29T11:05:24.671Z,90.40
2022-07-29T11:07:11.523Z,91.60
2022-07-29T11:08:44.753Z,91.60
2022-07-29T11:10:23.375Z,90.80
2022-07-29T11:12:04.243Z,91.10
2022-07-29T11:13:52.493Z,90.70
2022-07-29T11:15:28.549Z,91.10
2022-07-29T11:17:03.519Z,91.30
2022-07-29T11:21:54.738Z,90.80
2022-07-29T11:23:34.064Z,91.20
2022-07-29T11:25:17.465Z,91.40
2022-07-29T11:27:18.088Z,90.90
2022-07-29T11:28:56.753Z,91.10
2022-07-29T11:30:52.650Z,91.10
2022-07-29T11:32:36.859Z,91.40
2022-07-29T11:34:21.108Z,91.40
2022-07-29T11:36:10.845Z,91.30
2022-07-29T11:38:27.946Z,91.10
2022-07-29T11:40:19.895Z,90.80
2022-07-29T11:41:52.656Z,90.90
2022-07-29T11:43:50.650Z,91.30
2022-07-29T11:45:46.424Z,91.20
2022-07-29T11:47:23.865Z,91.20
2022-07-29T11:49:01.490Z,91.30
2022-07-29T11:50:37.313Z,91.30
2022-07-29T11:52:17.331Z,91.40
2022-07-29T11:53:52.497Z,90.90
2022-07-29T11:55:32.588Z,91.60
2022-07-29T11:57:09.524Z,91.10
2022-07-29T11:58:42.738Z,90.80
2022-07-29T12:00:25.894Z,91.20
2022-07-29T12:02:18.401Z,91.10
2022-07-29T12:04:06.815Z,91.10
2022-07-29T12:05:48.289Z,90.70
2022-07-29T12:07:33.839Z,91.20
2022-07-29T12:09:14.548Z,91.00
2022-07-29T12:10:49.092Z,90.70
2022-07-29T12:12:22.751Z,91.40
2022-07-29T12:13:57.312Z,91.80
2022-07-29T12:15:46.310Z,91.00
2022-07-29T12:17:30.851Z,91.40
2022-07-29T12:19:06.513Z,91.10
2022-07-29T12:20:38.620Z,91.40
2022-07-29T12:22:12.051Z,91.20
2022-07-29T12:23:54.705Z,91.30
2022-07-29T12:25:32.980Z,91.40
2022-07-29T12:27:06.526Z,91.60
2022-07-29T12:28:40.159Z,91.50
2022-07-29T12:30:17.416Z,91.10
2022-07-29T12:31:55.080Z,91.10
2022-07-29T12:33:31.097Z,91.20
2022-07-29T12:35:11.188Z,91.10
2022-07-29T12:36:44.729Z,91.10
2022-07-29T12:38:17.727Z,91.00
2022-07-29T12:39:51.950Z,91.30
2022-07-29T12:41:24.803Z,90.60
2022-07-29T12:43:11.390Z,90.60
2022-07-29T12:44:48.922Z,90.70
2022-07-29T12:46:21.822Z,90.50
2022-07-29T12:47:54.734Z,90.90
2022-07-29T12:49:27.586Z,91.10
2022-07-29T12:51:03.317Z,91.10
2022-07-29T12:52:37.115Z,90.90
2022-07-29T12:54:12.219Z,91.10
2022-07-29T12:55:49.840Z,91.10
2022-07-29T12:57:23.027Z,91.10
2022-07-29T12:58:55.878Z,90.80
2022-07-29T13:00:28.726Z,90.50
2022-07-29T13:02:01.654Z,91.10
2022-07-29T13:03:56.665Z,90.80
2022-07-29T13:05:45.673Z,91.00
2022-07-29T13:07:55.674Z,90.70
2022-07-29T13:09:23.341Z,90.70
2022-07-29T13:10:56.624Z,90.90
2022-07-29T13:12:30.093Z,90.60
2022-07-29T13:14:05.910Z,90.80
2022-07-29T13:15:41.205Z,90.80
2022-07-29T13:17:16.610Z,90.80
2022-07-29T13:18:49.381Z,90.70
2022-07-29T13:20:28.310Z,90.60
2022-07-29T13:22:01.378Z,90.60
2022-07-29T13:23:38.424Z,90.40
2022-07-29T13:25:11.602Z,90.70
2022-07-29T13:26:44.315Z,90.60
2022-07-29T13:28:17.425Z,90.70
2022-07-29T13:29:52.156Z,90.50
2022-07-29T13:31:25.205Z,90.60
2022-07-29T13:32:57.924Z,90.50
2022-07-29T13:34:30.679Z,90.50
2022-07-29T13:36:03.477Z,90.40
2022-07-29T13:37:39.169Z,90.40
2022-07-29T13:39:13.327Z,90.10
2022-07-29T13:40:46.320Z,90.10
2022-07-29T13:42:19.136Z,90.10
2022-07-29T13:43:51.870Z,90.10
2022-07-29T13:45:24.791Z,90.20
2022-07-29T13:47:01.822Z,90.20
2022-07-29T13:48:34.641Z,89.40
2022-07-29T13:50:10.786Z,89.80
2022-07-29T13:51:43.618Z,90.10
2022-07-29T13:53:17.877Z,89.60
2022-07-29T13:54:52.366Z,90.00
2022-07-29T13:56:25.096Z,90.00
2022-07-29T13:57:57.885Z,90.10
2022-07-29T13:59:30.725Z,90.20
2022-07-29T14:01:03.733Z,90.40
2022-07-29T14:02:36.727Z,90.20
2022-07-29T14:04:10.187Z,90.30
2022-07-29T14:05:45.127Z,90.40
2022-07-29T14:07:18.172Z,90.40
2022-07-29T14:08:50.975Z,90.60
2022-07-29T14:10:25.118Z,90.50
2022-07-29T14:11:58.186Z,90.40
2022-07-29T14:13:32.370Z,90.30
2022-07-29T14:15:05.954Z,90.20
2022-07-29T14:16:43.058Z,90.00
2022-07-29T14:18:20.420Z,90.30
2022-07-29T14:19:53.148Z,90.30
2022-07-29T14:21:26.007Z,90.30
2022-07-29T14:22:58.898Z,90.50
2022-07-29T14:24:32.117Z,90.40
2022-07-29T14:26:08.780Z,90.50
2022-07-29T14:27:46.380Z,90.60
2022-07-29T14:29:19.178Z,90.80
2022-07-29T14:30:51.953Z,90.50
2022-07-29T14:32:24.707Z,90.50
2022-07-29T14:34:02.445Z,90.50
2022-07-29T14:35:35.510Z,90.60
2022-07-29T14:37:09.286Z,90.30
2022-07-29T14:38:42.087Z,90.20
2022-07-29T14:40:14.851Z,90.40
2022-07-29T14:41:48.935Z,90.50
2022-07-29T14:43:21.808Z,90.20
2022-07-29T14:44:54.688Z,90.30
2022-07-29T14:46:27.514Z,90.50
2022-07-29T14:48:00.765Z,90.30
2022-07-29T14:49:33.532Z,90.20
2022-07-29T14:51:06.770Z,90.50
2022-07-29T14:52:39.856Z,90.30
2022-07-29T14:54:12.624Z,90.70
2022-07-29T14:55:46.106Z,91.10
2022-07-29T14:57:20.730Z,91.20
2022-07-29T14:58:53.518Z,91.20
2022-07-29T15:00:26.644Z,91.60
2022-07-29T15:01:59.685Z,91.40
2022-07-29T15:03:33.880Z,91.60
2022-07-29T15:05:07.508Z,91.60
2022-07-29T15:06:40.299Z,91.60
2022-07-29T15:08:13.251Z,91.60
2022-07-29T15:09:49.432Z,91.60
2022-07-29T15:11:22.918Z,91.40
2022-07-29T15:12:57.529Z,91.40
2022-07-29T15:14:30.370Z,91.40
2022-07-29T15:16:03.211Z,91.60
2022-07-29T15:17:36.001Z,91.40
2022-07-29T15:19:08.740Z,91.30
2022-07-29T15:20:41.625Z,91.60
2022-07-29T15:22:14.404Z,92.10
2022-07-29T15:23:47.110Z,92.20
2022-07-29T15:25:20.004Z,92.20
2022-07-29T15:26:52.989Z,92.10
2022-07-29T15:28:27.343Z,92.00
2022-07-29T15:30:00.227Z,92.00
2022-07-29T15:31:33.083Z,91.90
2022-07-29T15:33:05.940Z,92.00
2022-07-29T15:34:39.565Z,92.00
2022-07-29T15:36:25.454Z,92.10
2022-07-29T15:38:05.915Z,92.30
2022-07-29T15:39:38.717Z,92.60
2022-07-29T15:41:11.533Z,92.90
2022-07-29T15:42:44.313Z,93.00
2022-07-29T15:44:18.434Z,93.10
2022-07-29T15:46:05.269Z,93.20
2022-07-29T15:47:38.223Z,93.40
2022-07-29T15:49:11.076Z,93.20
2022-07-29T15:50:46.997Z,93.00
2022-07-29T15:52:24.991Z,93.00
2022-07-29T15:53:59.311Z,93.00
2022-07-29T15:55:32.140Z,92.80
2022-07-29T15:57:08.723Z,92.80
2022-07-29T15:58:41.480Z,92.90
2022-07-29T16:00:17.458Z,92.90
2022-07-29T16:01:50.325Z,92.80
2022-07-29T16:03:24.546Z,93.00
2022-07-29T16:04:57.295Z,93.80
2022-07-29T16:06:30.067Z,94.20
2022-07-29T16:08:02.848Z,94.80
2022-07-29T16:09:35.660Z,94.70
2022-07-29T16:11:08.591Z,94.70
2022-07-29T16:12:41.897Z,94.30
2022-07-29T16:14:14.719Z,94.10
2022-07-29T16:16:02.159Z,93.50
2022-07-29T16:17:35.835Z,93.00
2022-07-29T16:19:09.384Z,93.00
2022-07-29T16:20:42.631Z,92.70
2022-07-29T16:22:15.866Z,92.90
2022-07-29T16:23:48.610Z,92.90
2022-07-29T16:25:29.541Z,92.40
2022-07-29T16:27:11.384Z,92.40
2022-07-29T16:28:44.156Z,92.40
2022-07-29T16:30:20.297Z,92.40
2022-07-29T16:31:54.541Z,92.50
2022-07-29T16:33:28.226Z,92.60
2022-07-29T16:35:05.047Z,92.30
2022-07-29T16:36:37.819Z,92.30
2022-07-29T16:38:10.603Z,92.00
2022-07-29T16:39:43.424Z,91.80
2022-07-29T16:41:16.428Z,91.90
2022-07-29T16:42:49.254Z,91.80
2022-07-29T16:44:22.139Z,91.80
2022-07-29T16:45:57.953Z,91.90
2022-07-29T16:47:32.963Z,92.00
2022-07-29T16:49:05.808Z,92.10
2022-07-29T16:50:39.946Z,92.20
2022-07-29T16:52:12.922Z,92.10
2022-07-29T16:53:45.912Z,92.20
2022-07-29T16:55:22.660Z,92.20
2022-07-29T16:56:56.178Z,92.50
2022-07-29T16:58:29.067Z,92.00
2022-07-29T17:00:01.869Z,91.80
2022-07-29T17:01:34.700Z,92.10
2022-07-29T17:03:08.815Z,93.00
2022-07-29T17:04:43.127Z,93.10
2022-07-29T17:06:15.899Z,93.30
2022-07-29T17:07:49.764Z,93.70
2022-07-29T17:09:22.716Z,93.80
2022-07-29T17:10:55.458Z,93.20
2022-07-29T17:12:28.480Z,92.80
2022-07-29T17:14:01.284Z,92.90
2022-07-29T17:15:36.403Z,92.50
2022-07-29T17:17:09.340Z,92.60
2022-07-29T17:18:48.049Z,92.90
2022-07-29T17:20:20.939Z,92.90
2022-07-29T17:22:01.028Z,92.60
2022-07-29T17:23:37.715Z,92.40
2022-07-29T17:25:11.611Z,92.50
2022-07-29T17:26:53.571Z,93.00
2022-07-29T17:28:26.662Z,95.30
2022-07-29T17:29:59.721Z,98.10
2022-07-29T17:31:32.742Z,98.00
2022-07-29T17:33:05.562Z,99.00
2022-07-29T17:34:42.055Z,99.90
2022-07-29T17:36:26.843Z,99.90
2022-07-29T17:37:59.703Z,99.90
2022-07-29T17:39:32.737Z,99.90
2022-07-29T17:41:07.320Z,99.90
2022-07-29T17:42:42.502Z,99.90
2022-07-29T17:44:15.274Z,99.90
2022-07-29T17:45:50.303Z,99.90
2022-07-29T17:47:23.490Z,99.90
2022-07-29T17:48:57.503Z,99.90
2022-07-29T17:50:31.619Z,99.90
2022-07-29T17:52:04.646Z,99.90
2022-07-29T17:53:37.775Z,99.90
2022-07-29T17:55:13.163Z,99.90
2022-07-29T17:56:45.915Z,99.90
2022-07-29T17:58:18.674Z,99.90
2022-07-29T17:59:51.526Z,99.90
2022-07-29T18:01:24.309Z,99.90
2022-07-29T18:02:57.188Z,99.90
2022-07-29T18:04:31.296Z,99.90
2022-07-29T18:06:05.670Z,99.90
2022-07-29T18:07:38.623Z,99.90
2022-07-29T18:09:11.400Z,99.90
2022-07-29T18:10:44.265Z,99.90
2022-07-29T18:12:17.032Z,99.90
2022-07-29T18:13:49.923Z,99.90
2022-07-29T18:15:22.879Z,99.90
2022-07-29T18:16:55.973Z,99.90
2022-07-29T18:18:29.335Z,99.90
2022-07-29T18:20:02.110Z,99.90
2022-07-29T18:21:42.614Z,99.90
2022-07-29T18:23:24.173Z,99.90
2022-07-29T18:24:56.959Z,99.90
2022-07-29T18:26:30.665Z,99.90
2022-07-29T18:28:03.472Z,99.90
2022-07-29T18:29:36.351Z,99.90
2022-07-29T18:31:09.236Z,99.90
2022-07-29T18:32:54.355Z,99.90
2022-07-29T18:34:34.938Z,99.90
2022-07-29T18:36:11.624Z,99.90
2022-07-29T18:38:01.842Z,99.90
2022-07-29T18:39:35.572Z,99.90
2022-07-29T18:41:08.412Z,99.90
2022-07-29T18:42:41.501Z,99.90
2022-07-29T18:44:16.872Z,99.90
2022-07-29T18:45:50.704Z,99.90
2022-07-29T18:47:23.510Z,99.90
2022-07-29T18:49:04.946Z,99.90
2022-07-29T18:50:37.844Z,99.90
2022-07-29T18:52:10.817Z,99.90
2022-07-29T18:53:44.928Z,99.90
2022-07-29T18:55:17.695Z,99.90
2022-07-29T18:56:50.718Z,99.90
2022-07-29T18:58:23.467Z,99.90
2022-07-29T18:59:57.080Z,99.90
2022-07-29T19:01:31.797Z,99.90
2022-07-29T19:03:05.151Z,99.90
2022-07-29T19:04:38.040Z,99.90
2022-07-29T19:06:10.797Z,99.90
2022-07-29T19:07:43.751Z,99.90
2022-07-29T19:09:18.438Z,99.90
2022-07-29T19:10:51.207Z,99.90
2022-07-29T19:12:24.108Z,99.90
2022-07-29T19:13:57.122Z,99.90
2022-07-29T19:15:30.046Z,99.90
2022-07-29T19:17:03.564Z,99.90
2022-07-29T19:18:36.335Z,99.90
2022-07-29T19:20:09.755Z,99.90
2022-07-29T19:21:42.538Z,99.90
2022-07-29T19:23:15.288Z,99.90
2022-07-29T19:24:49.517Z,99.90
2022-07-29T19:26:22.303Z,99.90
2022-07-29T19:27:55.222Z,99.90
2022-07-29T19:29:28.016Z,99.90
2022-07-29T19:31:00.812Z,99.90
2022-07-29T19:32:33.764Z,99.90
2022-07-29T19:34:05.538Z,99.90
2022-07-29T19:35:38.391Z,99.90
2022-07-29T19:37:11.666Z,99.90
2022-07-29T19:38:44.464Z,99.90
2022-07-29T19:40:18.730Z,99.90
2022-07-29T19:41:57.329Z,99.90
2022-07-29T19:43:51.467Z,99.90
2022-07-29T19:45:26.017Z,99.90
2022-07-29T19:47:00.517Z,99.90
2022-07-29T19:48:33.607Z,99.90
2022-07-29T19:50:07.462Z,99.90
2022-07-29T19:51:40.703Z,99.90
2022-07-29T19:53:13.475Z,99.90
2022-07-29T19:54:46.321Z,99.90
2022-07-29T19:56:20.457Z,99.90
2022-07-29T19:57:54.281Z,99.90
2022-07-29T19:59:29.518Z,99.90
2022-07-29T20:01:02.751Z,99.90
2022-07-29T20:02:43.742Z,99.90
2022-07-29T20:04:16.604Z,99.90
2022-07-29T20:05:51.114Z,99.90
2022-07-29T20:07:23.828Z,99.90
2022-07-29T20:08:58.719Z,99.90
2022-07-29T20:10:30.886Z,99.90
2022-07-29T20:12:06.548Z,99.90
2022-07-29T20:13:39.284Z,99.90
2022-07-29T20:15:16.164Z,99.90
2022-07-29T20:16:49.441Z,99.90
2022-07-29T20:18:22.239Z,99.90
2022-07-29T20:19:56.198Z,99.90
2022-07-29T20:21:29.147Z,99.90
2022-07-29T20:23:03.753Z,99.90
2022-07-29T20:24:36.601Z,99.90
2022-07-29T20:26:09.998Z,99.90
2022-07-29T20:27:44.190Z,99.90
2022-07-29T20:29:17.114Z,99.90
2022-07-29T20:30:49.994Z,99.90
2022-07-29T20:32:22.844Z,99.90
2022-07-29T20:33:55.787Z,99.90
2022-07-29T20:35:28.806Z,99.90
2022-07-29T20:37:02.685Z,99.90